PTRZB SIRI-SJIR
Flight info
| Callsign | PTRZB |
|---|---|
| Flight time | 0h 45m |
| Altitude | 8500 |
| Route | DCT 1344S03908W 1336S03918W 1331S03958W 1323S04027W DCT |
| Aircraft | C208/L-SDFGR/C |
Departure
| Time | 2026-04-27 19:54 |
|---|---|
| Airport | Barra Grande Airport (SIRI) |
Arrival
| Time | 2026-04-27 20:39 |
|---|---|
| Airport | Engenheiro Joaquim Martins Airport (SJIR) |
| Time | Latitude | Longitude | Altitude | Speed | Heading |
|---|---|---|---|---|---|
| 2026-04-27 19:42 | -13.90625 | -38.93401 | 29 ft | 0 kts | 184° |
| 2026-04-27 19:50 | -13.90615 | -38.93401 | 26 ft | 2 kts | 166° |
| 2026-04-27 19:50 | -13.90607 | -38.93408 | 29 ft | 2 kts | 110° |
| 2026-04-27 19:51 | -13.90608 | -38.93419 | 30 ft | 2 kts | 58° |
| 2026-04-27 19:52 | -13.90605 | -38.93405 | 29 ft | 7 kts | 96° |
| 2026-04-27 19:52 | -13.90575 | -38.93387 | 29 ft | 7 kts | 303° |
| 2026-04-27 19:52 | -13.90572 | -38.93435 | 31 ft | 7 kts | 266° |
| 2026-04-27 19:52 | -13.90575 | -38.93494 | 33 ft | 12 kts | 267° |
| 2026-04-27 19:53 | -13.90604 | -38.94065 | 35 ft | 105 kts | 266° |
| 2026-04-27 19:53 | -13.90660 | -38.94984 | 165 ft | 140 kts | 266° |
| 2026-04-27 19:53 | -13.90723 | -38.96011 | 540 ft | 144 kts | 266° |
| 2026-04-27 19:54 | -13.90782 | -38.97035 | 983 ft | 143 kts | 265° |
| 2026-04-27 19:54 | -13.90837 | -38.98051 | 1424 ft | 141 kts | 270° |
| 2026-04-27 19:54 | -13.90431 | -38.98906 | 1844 ft | 137 kts | 321° |
| 2026-04-27 19:54 | -13.89709 | -38.99536 | 2280 ft | 136 kts | 321° |
| 2026-04-27 19:55 | -13.88986 | -39.00180 | 2681 ft | 139 kts | 321° |
| 2026-04-27 19:55 | -13.88233 | -39.00827 | 3028 ft | 142 kts | 322° |
| 2026-04-27 19:55 | -13.87470 | -39.01495 | 3375 ft | 145 kts | 322° |
| 2026-04-27 19:55 | -13.86677 | -39.02134 | 3709 ft | 147 kts | 326° |
| 2026-04-27 19:56 | -13.85844 | -39.02748 | 4045 ft | 147 kts | 326° |
| 2026-04-27 19:56 | -13.85011 | -39.03361 | 4390 ft | 146 kts | 325° |
| 2026-04-27 19:56 | -13.84176 | -39.03965 | 4734 ft | 146 kts | 326° |
| 2026-04-27 19:56 | -13.83338 | -39.04567 | 5068 ft | 147 kts | 326° |
| 2026-04-27 19:57 | -13.82506 | -39.05160 | 5400 ft | 147 kts | 326° |
| 2026-04-27 19:57 | -13.81664 | -39.05759 | 5725 ft | 147 kts | 326° |
| 2026-04-27 19:57 | -13.80817 | -39.06358 | 6013 ft | 147 kts | 326° |
| 2026-04-27 19:57 | -13.79980 | -39.06949 | 6298 ft | 147 kts | 326° |
| 2026-04-27 19:58 | -13.79202 | -39.07628 | 6585 ft | 146 kts | 314° |
| 2026-04-27 19:58 | -13.78505 | -39.08396 | 6864 ft | 146 kts | 311° |
| 2026-04-27 19:58 | -13.77837 | -39.09174 | 7144 ft | 147 kts | 310° |
| 2026-04-27 19:58 | -13.77168 | -39.09967 | 7429 ft | 146 kts | 310° |
| 2026-04-27 19:59 | -13.76501 | -39.10757 | 7717 ft | 146 kts | 310° |
| 2026-04-27 19:59 | -13.75836 | -39.11546 | 8006 ft | 145 kts | 310° |
| 2026-04-27 19:59 | -13.75175 | -39.12328 | 8297 ft | 144 kts | 310° |
| 2026-04-27 19:59 | -13.74507 | -39.13122 | 8511 ft | 153 kts | 310° |
| 2026-04-27 20:00 | -13.73788 | -39.13974 | 8524 ft | 165 kts | 310° |
| 2026-04-27 20:00 | -13.73044 | -39.14914 | 8523 ft | 172 kts | 306° |
| 2026-04-27 20:00 | -13.72302 | -39.15901 | 8522 ft | 176 kts | 308° |
| 2026-04-27 20:00 | -13.71539 | -39.16894 | 8523 ft | 178 kts | 308° |
| 2026-04-27 20:01 | -13.70774 | -39.17899 | 8520 ft | 179 kts | 307° |
| 2026-04-27 20:01 | -13.70007 | -39.18909 | 8523 ft | 179 kts | 308° |
| 2026-04-27 20:01 | -13.69238 | -39.19923 | 8522 ft | 179 kts | 308° |
| 2026-04-27 20:01 | -13.68476 | -39.20926 | 8519 ft | 180 kts | 307° |
| 2026-04-27 20:02 | -13.67703 | -39.21944 | 8520 ft | 180 kts | 308° |
| 2026-04-27 20:02 | -13.66942 | -39.22946 | 8519 ft | 180 kts | 307° |
| 2026-04-27 20:02 | -13.66172 | -39.23960 | 8520 ft | 180 kts | 307° |
| 2026-04-27 20:02 | -13.65399 | -39.24977 | 8518 ft | 180 kts | 307° |
| 2026-04-27 20:03 | -13.64629 | -39.25992 | 8519 ft | 180 kts | 308° |
| 2026-04-27 20:03 | -13.63856 | -39.27010 | 8520 ft | 180 kts | 308° |
| 2026-04-27 20:03 | -13.63088 | -39.28021 | 8519 ft | 180 kts | 308° |
| 2026-04-27 20:03 | -13.62327 | -39.29022 | 8514 ft | 180 kts | 308° |
| 2026-04-27 20:04 | -13.61557 | -39.30036 | 8519 ft | 180 kts | 308° |
| 2026-04-27 20:04 | -13.60913 | -39.31127 | 8515 ft | 179 kts | 288° |
| 2026-04-27 20:04 | -13.60708 | -39.32386 | 8513 ft | 179 kts | 276° |
| 2026-04-27 20:04 | -13.60551 | -39.33655 | 8516 ft | 179 kts | 277° |
| 2026-04-27 20:05 | -13.60390 | -39.34927 | 8514 ft | 179 kts | 277° |
| 2026-04-27 20:05 | -13.60235 | -39.36183 | 8518 ft | 179 kts | 277° |
| 2026-04-27 20:05 | -13.60076 | -39.37460 | 8524 ft | 179 kts | 277° |
| 2026-04-27 20:05 | -13.59918 | -39.38733 | 8522 ft | 179 kts | 277° |
| 2026-04-27 20:06 | -13.59761 | -39.39989 | 8524 ft | 179 kts | 277° |
| 2026-04-27 20:06 | -13.59603 | -39.41261 | 8522 ft | 179 kts | 277° |
| 2026-04-27 20:06 | -13.59445 | -39.42534 | 8523 ft | 179 kts | 277° |
| 2026-04-27 20:06 | -13.59286 | -39.43808 | 8523 ft | 179 kts | 277° |
| 2026-04-27 20:07 | -13.59128 | -39.45080 | 8527 ft | 179 kts | 277° |
| 2026-04-27 20:07 | -13.58969 | -39.46351 | 8527 ft | 179 kts | 277° |
| 2026-04-27 20:07 | -13.58810 | -39.47624 | 8525 ft | 179 kts | 277° |
| 2026-04-27 20:07 | -13.58654 | -39.48880 | 8528 ft | 179 kts | 277° |
| 2026-04-27 20:08 | -13.58495 | -39.50156 | 8529 ft | 179 kts | 277° |
| 2026-04-27 20:08 | -13.58336 | -39.51430 | 8528 ft | 179 kts | 277° |
| 2026-04-27 20:08 | -13.58176 | -39.52704 | 8531 ft | 179 kts | 277° |
| 2026-04-27 20:08 | -13.58019 | -39.53961 | 8530 ft | 179 kts | 277° |
| 2026-04-27 20:09 | -13.57860 | -39.55236 | 8530 ft | 179 kts | 277° |
| 2026-04-27 20:09 | -13.57700 | -39.56511 | 8531 ft | 179 kts | 277° |
| 2026-04-27 20:09 | -13.57541 | -39.57781 | 8531 ft | 179 kts | 277° |
| 2026-04-27 20:09 | -13.57383 | -39.59039 | 8531 ft | 179 kts | 277° |
| 2026-04-27 20:10 | -13.57224 | -39.60314 | 8534 ft | 179 kts | 277° |
| 2026-04-27 20:10 | -13.57064 | -39.61587 | 8533 ft | 179 kts | 277° |
| 2026-04-27 20:10 | -13.56904 | -39.62862 | 8535 ft | 179 kts | 277° |
| 2026-04-27 20:10 | -13.56745 | -39.64135 | 8539 ft | 179 kts | 277° |
| 2026-04-27 20:11 | -13.56585 | -39.65406 | 8538 ft | 179 kts | 277° |
| 2026-04-27 20:11 | -13.56428 | -39.66664 | 8537 ft | 179 kts | 277° |
| 2026-04-27 20:11 | -13.56268 | -39.67936 | 8538 ft | 179 kts | 277° |
| 2026-04-27 20:11 | -13.56108 | -39.69207 | 8539 ft | 179 kts | 277° |
| 2026-04-27 20:12 | -13.55949 | -39.70480 | 8538 ft | 179 kts | 277° |
| 2026-04-27 20:12 | -13.55842 | -39.71322 | 8537 ft | 179 kts | 277° |
| 2026-04-27 20:12 | -13.55629 | -39.73023 | 8539 ft | 179 kts | 277° |
| 2026-04-27 20:12 | -13.55469 | -39.74292 | 8537 ft | 179 kts | 277° |
| 2026-04-27 20:13 | -13.55309 | -39.75563 | 8539 ft | 179 kts | 277° |
| 2026-04-27 20:13 | -13.55151 | -39.76818 | 8538 ft | 179 kts | 277° |
| 2026-04-27 20:13 | -13.54991 | -39.78089 | 8538 ft | 179 kts | 277° |
| 2026-04-27 20:13 | -13.54831 | -39.79358 | 8538 ft | 179 kts | 277° |
| 2026-04-27 20:14 | -13.54670 | -39.80630 | 8539 ft | 179 kts | 277° |
| 2026-04-27 20:14 | -13.54510 | -39.81899 | 8537 ft | 179 kts | 277° |
| 2026-04-27 20:14 | -13.54350 | -39.83171 | 8539 ft | 179 kts | 277° |
| 2026-04-27 20:14 | -13.54192 | -39.84425 | 8539 ft | 179 kts | 277° |
| 2026-04-27 20:15 | -13.54031 | -39.85696 | 8537 ft | 179 kts | 277° |
| 2026-04-27 20:15 | -13.53871 | -39.86964 | 8542 ft | 179 kts | 277° |
| 2026-04-27 20:15 | -13.53710 | -39.88231 | 8541 ft | 179 kts | 277° |
| 2026-04-27 20:15 | -13.53551 | -39.89499 | 8541 ft | 179 kts | 277° |
| 2026-04-27 20:16 | -13.53390 | -39.90768 | 8542 ft | 179 kts | 277° |
| 2026-04-27 20:16 | -13.53229 | -39.92035 | 8541 ft | 179 kts | 277° |
| 2026-04-27 20:16 | -13.53070 | -39.93302 | 8539 ft | 179 kts | 277° |
| 2026-04-27 20:16 | -13.52908 | -39.94570 | 8538 ft | 179 kts | 277° |
| 2026-04-27 20:17 | -13.52750 | -39.95824 | 8540 ft | 179 kts | 277° |
| 2026-04-27 20:17 | -13.52586 | -39.97089 | 8542 ft | 178 kts | 279° |
| 2026-04-27 20:17 | -13.52256 | -39.98316 | 8540 ft | 178 kts | 287° |
| 2026-04-27 20:17 | -13.52017 | -39.99124 | 8540 ft | 178 kts | 287° |
| 2026-04-27 20:18 | -13.51548 | -40.00763 | 8543 ft | 178 kts | 286° |
| 2026-04-27 20:18 | -13.51202 | -40.01986 | 8545 ft | 178 kts | 286° |
| 2026-04-27 20:18 | -13.50854 | -40.03210 | 8543 ft | 178 kts | 286° |
| 2026-04-27 20:18 | -13.50509 | -40.04418 | 8544 ft | 178 kts | 286° |
| 2026-04-27 20:19 | -13.50161 | -40.05642 | 8544 ft | 178 kts | 286° |
| 2026-04-27 20:19 | -13.49811 | -40.06868 | 8544 ft | 178 kts | 286° |
| 2026-04-27 20:19 | -13.49463 | -40.08090 | 8544 ft | 178 kts | 286° |
| 2026-04-27 20:19 | -13.49114 | -40.09313 | 8544 ft | 178 kts | 286° |
| 2026-04-27 20:20 | -13.48769 | -40.10523 | 8543 ft | 178 kts | 286° |
| 2026-04-27 20:20 | -13.48421 | -40.11744 | 8543 ft | 178 kts | 286° |
| 2026-04-27 20:20 | -13.48071 | -40.12966 | 8540 ft | 178 kts | 286° |
| 2026-04-27 20:20 | -13.47721 | -40.14193 | 8540 ft | 178 kts | 286° |
| 2026-04-27 20:21 | -13.47373 | -40.15415 | 8542 ft | 178 kts | 286° |
| 2026-04-27 20:21 | -13.47024 | -40.16635 | 8540 ft | 178 kts | 287° |
| 2026-04-27 20:21 | -13.46676 | -40.17855 | 8542 ft | 178 kts | 287° |
| 2026-04-27 20:21 | -13.46327 | -40.19077 | 8541 ft | 178 kts | 287° |
| 2026-04-27 20:22 | -13.45983 | -40.20280 | 8542 ft | 178 kts | 287° |
| 2026-04-27 20:22 | -13.45635 | -40.21499 | 8539 ft | 178 kts | 287° |
| 2026-04-27 20:22 | -13.45286 | -40.22722 | 8542 ft | 178 kts | 286° |
| 2026-04-27 20:22 | -13.44937 | -40.23941 | 8536 ft | 178 kts | 286° |
| 2026-04-27 20:23 | -13.44588 | -40.25162 | 8539 ft | 178 kts | 287° |
| 2026-04-27 20:23 | -13.44238 | -40.26385 | 8537 ft | 178 kts | 287° |
| 2026-04-27 20:23 | -13.43892 | -40.27595 | 8538 ft | 178 kts | 286° |
| 2026-04-27 20:23 | -13.43540 | -40.28823 | 8538 ft | 178 kts | 287° |
| 2026-04-27 20:24 | -13.43191 | -40.30046 | 8536 ft | 178 kts | 286° |
| 2026-04-27 20:24 | -13.42840 | -40.31269 | 8533 ft | 178 kts | 286° |
| 2026-04-27 20:24 | -13.42490 | -40.32496 | 8534 ft | 178 kts | 287° |
| 2026-04-27 20:24 | -13.42143 | -40.33706 | 8532 ft | 178 kts | 286° |
| 2026-04-27 20:25 | -13.41792 | -40.34931 | 8535 ft | 179 kts | 287° |
| 2026-04-27 20:25 | -13.41441 | -40.36157 | 8535 ft | 178 kts | 287° |
| 2026-04-27 20:25 | -13.41094 | -40.37367 | 8534 ft | 178 kts | 287° |
| 2026-04-27 20:25 | -13.40743 | -40.38592 | 8533 ft | 179 kts | 287° |
| 2026-04-27 20:26 | -13.40391 | -40.39819 | 8533 ft | 179 kts | 287° |
| 2026-04-27 20:26 | -13.40040 | -40.41044 | 8527 ft | 179 kts | 287° |
| 2026-04-27 20:26 | -13.39689 | -40.42269 | 8527 ft | 179 kts | 287° |
| 2026-04-27 20:26 | -13.39338 | -40.43495 | 8527 ft | 179 kts | 287° |
| 2026-04-27 20:27 | -13.38986 | -40.44721 | 8526 ft | 179 kts | 287° |
| 2026-04-27 20:27 | -13.38638 | -40.45936 | 8527 ft | 179 kts | 287° |
| 2026-04-27 20:27 | -13.38362 | -40.47184 | 8523 ft | 178 kts | 279° |
| 2026-04-27 20:27 | -13.38229 | -40.48017 | 8525 ft | 178 kts | 280° |
| 2026-04-27 20:28 | -13.37945 | -40.49681 | 8521 ft | 179 kts | 280° |
| 2026-04-27 20:28 | -13.37798 | -40.50534 | 8521 ft | 179 kts | 280° |
| 2026-04-27 20:28 | -13.37585 | -40.51777 | 8523 ft | 179 kts | 280° |
| 2026-04-27 20:28 | -13.37369 | -40.53038 | 8521 ft | 179 kts | 280° |
| 2026-04-27 20:29 | -13.37154 | -40.54299 | 8520 ft | 179 kts | 280° |
| 2026-04-27 20:29 | -13.36938 | -40.55561 | 8516 ft | 179 kts | 279° |
| 2026-04-27 20:29 | -13.36722 | -40.56825 | 8515 ft | 179 kts | 280° |
| 2026-04-27 20:29 | -13.36506 | -40.58086 | 8516 ft | 179 kts | 280° |
| 2026-04-27 20:30 | -13.36289 | -40.59352 | 8516 ft | 179 kts | 279° |
| 2026-04-27 20:30 | -13.36076 | -40.60602 | 8515 ft | 179 kts | 279° |
| 2026-04-27 20:30 | -13.35855 | -40.61892 | 8313 ft | 189 kts | 279° |
| 2026-04-27 20:30 | -13.35636 | -40.63168 | 7972 ft | 177 kts | 279° |
| 2026-04-27 20:31 | -13.35427 | -40.64391 | 7624 ft | 171 kts | 279° |
| 2026-04-27 20:31 | -13.35223 | -40.65582 | 7278 ft | 168 kts | 279° |
| 2026-04-27 20:31 | -13.35021 | -40.66759 | 6938 ft | 166 kts | 279° |
| 2026-04-27 20:31 | -13.34821 | -40.67926 | 6613 ft | 165 kts | 279° |
| 2026-04-27 20:32 | -13.34624 | -40.69073 | 6275 ft | 165 kts | 280° |
| 2026-04-27 20:32 | -13.34426 | -40.70230 | 5937 ft | 164 kts | 280° |
| 2026-04-27 20:32 | -13.34227 | -40.71383 | 5600 ft | 163 kts | 280° |
| 2026-04-27 20:32 | -13.34031 | -40.72530 | 5256 ft | 163 kts | 280° |
| 2026-04-27 20:33 | -13.33834 | -40.73675 | 4929 ft | 163 kts | 280° |
| 2026-04-27 20:33 | -13.33640 | -40.74808 | 4591 ft | 163 kts | 280° |
| 2026-04-27 20:33 | -13.33443 | -40.75952 | 4244 ft | 162 kts | 280° |
| 2026-04-27 20:33 | -13.33247 | -40.77091 | 3913 ft | 162 kts | 280° |
| 2026-04-27 20:34 | -13.33052 | -40.78230 | 3542 ft | 163 kts | 280° |
| 2026-04-27 20:34 | -13.32854 | -40.79380 | 3159 ft | 164 kts | 280° |
| 2026-04-27 20:34 | -13.32665 | -40.80475 | 2927 ft | 145 kts | 280° |
| 2026-04-27 20:34 | -13.32506 | -40.81407 | 2903 ft | 122 kts | 280° |
| 2026-04-27 20:35 | -13.32364 | -40.82229 | 2890 ft | 111 kts | 280° |
| 2026-04-27 20:35 | -13.32234 | -40.82973 | 2886 ft | 106 kts | 280° |
| 2026-04-27 20:35 | -13.32110 | -40.83707 | 2898 ft | 103 kts | 281° |
| 2026-04-27 20:35 | -13.31985 | -40.84428 | 2898 ft | 102 kts | 280° |
| 2026-04-27 20:36 | -13.31861 | -40.85144 | 2903 ft | 102 kts | 280° |
| 2026-04-27 20:36 | -13.31626 | -40.85856 | 2906 ft | 110 kts | 312° |
| 2026-04-27 20:36 | -13.31064 | -40.86383 | 2922 ft | 111 kts | 324° |
| 2026-04-27 20:36 | -13.30339 | -40.86640 | 2920 ft | 111 kts | 350° |
| 2026-04-27 20:37 | -13.29594 | -40.86842 | 2919 ft | 115 kts | 347° |
| 2026-04-27 20:37 | -13.28806 | -40.87037 | 2913 ft | 116 kts | 349° |
| 2026-04-27 20:37 | -13.28019 | -40.87247 | 2918 ft | 117 kts | 342° |
| 2026-04-27 20:37 | -13.27491 | -40.87859 | 2900 ft | 123 kts | 281° |
| 2026-04-27 20:38 | -13.27778 | -40.88623 | 2904 ft | 121 kts | 216° |
| 2026-04-27 20:38 | -13.28482 | -40.88693 | 2904 ft | 95 kts | 154° |
| 2026-04-27 20:38 | -13.29122 | -40.88322 | 2528 ft | 110 kts | 151° |
| 2026-04-27 20:38 | -13.29856 | -40.88066 | 2226 ft | 111 kts | 167° |
| 2026-04-27 20:39 | -13.30572 | -40.87929 | 1858 ft | 88 kts | 165° |
| 2026-04-27 20:39 | -13.31039 | -40.87830 | 1735 ft | 52 kts | 173° |
| 2026-04-27 20:39 | -13.31301 | -40.87791 | 1749 ft | 26 kts | 168° |
| 2026-04-27 20:39 | -13.31511 | -40.87750 | 1755 ft | 21 kts | 169° |
| 2026-04-27 20:40 | -13.31560 | -40.87705 | 1757 ft | 8 kts | 83° |
| 2026-04-27 20:40 | -13.31554 | -40.87673 | 1753 ft | 0 kts | 78° |